メインページ
METAR-TAF:

METAR-TAF

空港 :

コルドバ, アルゼンチン

緯度: 31-19S, 経度: 064-13W, 海抜: 484m

現時点の気象観測

当レポートは25分前の21:00(UTC)に作成
北/北東の風 19kt
気温 21°C
湿度 33%
気圧 1019 hPa
視程10km以上
1,500メートル以下は雲なし、積乱雲なし

METAR: SACO 162100Z 03019KT CAVOK 21/04 Q1019 NOSIG

時間: 18:25 (21:25 UTC)

予報

当レポートは10時間25分前の11:00(UTC)に作成
予報は16日の 12時(UTC)から 17日の 12時(UTC)まで有効
北/北東の風 15kt、最大20ktの突風を伴う
視程10km以上
1,500メートル以下は雲なし、積乱雲なし
17日の 06時(UTC)から 17日の 06時(UTC)まで徐々に
の風 5kt
視程10km以上
1,500メートル以下は雲なし、積乱雲なし

TAF: SACO 161100Z 1612/1712 02015G20KT CAVOK TX24/1618Z TN06/1710Z BECMG 1706/1706 36005KT CAVOK

4,000以上の空港の気象観測と天気予報(METAR報とTAF報)

利用可能な観測所は地図上に黄色い丸と赤い丸で示す。

丸の上にカーソルを重ねると観測所名を参照できる。

次にクリックすると気象観測と天気予報を参照できる。

マップの切り替え:黒色「×」印の緑ボタンをクリックして拡大、「-」印の緑ボタンをクリックして縮小、緑色の三角印をクリックして隣りの地図に切り替え


METAR-TAF: